sensor_id;sensor_type;location;lat;lon;timestamp;pressure;altitude;pressure_sealevel;temperature;humidity
45763;BME280;37512;52.408;13.356;2023-02-13T00:01:51;103297.09;;;7.06;100.00
45763;BME280;37512;52.408;13.356;2023-02-13T00:05:53;103297.38;;;6.84;100.00
45763;BME280;37512;52.408;13.356;2023-02-13T00:09:55;103297.38;;;7.09;100.00
45763;BME280;37512;52.408;13.356;2023-02-13T00:13:57;103304.56;;;6.90;100.00
45763;BME280;37512;52.408;13.356;2023-02-13T00:17:58;103301.81;;;6.85;100.00
45763;BME280;37512;52.408;13.356;2023-02-13T00:22:01;103294.94;;;6.82;100.00
45763;BME280;37512;52.408;13.356;2023-02-13T00:26:08;103298.22;;;7.10;100.00
45763;BME280;37512;52.408;13.356;2023-02-13T00:30:10;103290.50;;;6.97;100.00
45763;BME280;37512;52.408;13.356;2023-02-13T00:34:11;103288.81;;;7.11;100.00
45763;BME280;37512;52.408;13.356;2023-02-13T00:38:13;103280.81;;;7.15;100.00
45763;BME280;37512;52.408;13.356;2023-02-13T00:42:14;103281.06;;;7.23;100.00
45763;BME280;37512;52.408;13.356;2023-02-13T00:46:16;103281.91;;;7.08;100.00
45763;BME280;37512;52.408;13.356;2023-02-13T00:50:18;103276.97;;;7.00;100.00
45763;BME280;37512;52.408;13.356;2023-02-13T00:54:20;103273.34;;;7.15;100.00
45763;BME280;37512;52.408;13.356;2023-02-13T00:58:21;103275.03;;;7.01;100.00
45763;BME280;37512;52.408;13.356;2023-02-13T01:02:24;103272.81;;;6.98;100.00
45763;BME280;37512;52.408;13.356;2023-02-13T01:06:25;103270.84;;;7.13;100.00
45763;BME280;37512;52.408;13.356;2023-02-13T01:10:27;103272.19;;;7.31;100.00
45763;BME280;37512;52.408;13.356;2023-02-13T01:14:28;103269.97;;;7.33;100.00
45763;BME280;37512;52.408;13.356;2023-02-13T01:18:30;103261.72;;;7.23;100.00
45763;BME280;37512;52.408;13.356;2023-02-13T01:22:31;103265.03;;;7.20;100.00
45763;BME280;37512;52.408;13.356;2023-02-13T01:26:33;103261.72;;;7.18;100.00
45763;BME280;37512;52.408;13.356;2023-02-13T01:30:35;103263.16;;;6.90;100.00
45763;BME280;37512;52.408;13.356;2023-02-13T01:34:36;103260.66;;;7.04;100.00
45763;BME280;37512;52.408;13.356;2023-02-13T01:38:38;103260.38;;;7.05;100.00
45763;BME280;37512;52.408;13.356;2023-02-13T01:42:40;103257.09;;;6.88;100.00
45763;BME280;37512;52.408;13.356;2023-02-13T01:46:42;103249.09;;;6.81;100.00
45763;BME280;37512;52.408;13.356;2023-02-13T01:50:49;103255.72;;;6.80;100.00
45763;BME280;37512;52.408;13.356;2023-02-13T01:54:52;103249.91;;;6.97;100.00
45763;BME280;37512;52.408;13.356;2023-02-13T01:58:57;103250.19;;;6.96;100.00
45763;BME280;37512;52.408;13.356;2023-02-13T02:03:05;103249.03;;;7.07;100.00
45763;BME280;37512;52.408;13.356;2023-02-13T02:07:21;103243.28;;;6.98;100.00
45763;BME280;37512;52.408;13.356;2023-02-13T02:16:03;103251.84;;;6.91;100.00
45763;BME280;37512;52.408;13.356;2023-02-13T02:34:00;103262.63;;;6.83;100.00
45763;BME280;37512;52.408;13.356;2023-02-13T02:38:39;103271.44;;;6.39;100.00
45763;BME280;37512;52.408;13.356;2023-02-13T02:47:43;103271.72;;;6.32;100.00
45763;BME280;37512;52.408;13.356;2023-02-13T02:52:26;103276.16;;;6.69;100.00
45763;BME280;37512;52.408;13.356;2023-02-13T02:56:38;103278.34;;;6.67;100.00
45763;BME280;37512;52.408;13.356;2023-02-13T03:00:41;103273.38;;;6.59;100.00
45763;BME280;37512;52.408;13.356;2023-02-13T03:05:02;103272.00;;;6.46;100.00
45763;BME280;37512;52.408;13.356;2023-02-13T03:09:24;103281.66;;;6.48;100.00
45763;BME280;37512;52.408;13.356;2023-02-13T03:13:45;103281.38;;;6.45;100.00
45763;BME280;37512;52.408;13.356;2023-02-13T03:17:48;103288.84;;;6.60;100.00
45763;BME280;37512;52.408;13.356;2023-02-13T03:22:09;103284.97;;;6.56;100.00
45763;BME280;37512;52.408;13.356;2023-02-13T03:30:33;103284.16;;;6.60;100.00
45763;BME280;37512;52.408;13.356;2023-02-13T03:34:40;103284.69;;;6.67;100.00
45763;BME280;37512;52.408;13.356;2023-02-13T03:39:09;103282.50;;;6.39;100.00
45763;BME280;37512;52.408;13.356;2023-02-13T03:43:12;103274.19;;;6.49;100.00
45763;BME280;37512;52.408;13.356;2023-02-13T03:47:15;103279.72;;;6.49;100.00
45763;BME280;37512;52.408;13.356;2023-02-13T03:51:59;103281.09;;;6.52;100.00
45763;BME280;37512;52.408;13.356;2023-02-13T03:55:42;103275.31;;;6.48;100.00
45763;BME280;37512;52.408;13.356;2023-02-13T04:00:04;103276.13;;;6.59;100.00
45763;BME280;37512;52.408;13.356;2023-02-13T04:04:52;103271.19;;;6.45;100.00
45763;BME280;37512;52.408;13.356;2023-02-13T04:08:32;103267.31;;;6.52;100.00
45763;BME280;37512;52.408;13.356;2023-02-13T04:17:04;103263.16;;;6.49;100.00
45763;BME280;37512;52.408;13.356;2023-02-13T04:21:06;103259.88;;;6.62;100.00
45763;BME280;37512;52.408;13.356;2023-02-13T04:25:09;103256.28;;;6.67;100.00
45763;BME280;37512;52.408;13.356;2023-02-13T04:29:10;103255.69;;;6.29;100.00
45763;BME280;37512;52.408;13.356;2023-02-13T04:33:11;103255.44;;;6.36;100.00
45763;BME280;37512;52.408;13.356;2023-02-13T04:37:13;103258.47;;;6.34;100.00
45763;BME280;37512;52.408;13.356;2023-02-13T04:41:14;103253.72;;;6.04;100.00
45763;BME280;37512;52.408;13.356;2023-02-13T04:45:15;103251.56;;;6.52;100.00
45763;BME280;37512;52.408;13.356;2023-02-13T04:49:17;103236.41;;;6.65;100.00
45763;BME280;37512;52.408;13.356;2023-02-13T04:53:18;103244.97;;;6.53;100.00
45763;BME280;37512;52.408;13.356;2023-02-13T04:57:20;103231.44;;;6.36;100.00
45763;BME280;37512;52.408;13.356;2023-02-13T05:01:21;103224.25;;;6.20;100.00
45763;BME280;37512;52.408;13.356;2023-02-13T05:05:23;103223.16;;;6.26;100.00
45763;BME280;37512;52.408;13.356;2023-02-13T05:09:24;103226.19;;;6.45;100.00
45763;BME280;37512;52.408;13.356;2023-02-13T05:13:25;103234.19;;;6.36;100.00
45763;BME280;37512;52.408;13.356;2023-02-13T05:17:27;103233.91;;;6.12;100.00
45763;BME280;37512;52.408;13.356;2023-02-13T05:21:28;103238.06;;;6.25;100.00
45763;BME280;37512;52.408;13.356;2023-02-13T05:25:48;103235.84;;;6.37;100.00
45763;BME280;37512;52.408;13.356;2023-02-13T05:29:50;103229.78;;;6.40;100.00
45763;BME280;37512;52.408;13.356;2023-02-13T05:33:51;103230.88;;;6.29;100.00
45763;BME280;37512;52.408;13.356;2023-02-13T05:37:52;103230.31;;;6.47;100.00
45763;BME280;37512;52.408;13.356;2023-02-13T05:41:54;103232.28;;;6.57;100.00
45763;BME280;37512;52.408;13.356;2023-02-13T05:46:02;103240.25;;;6.59;100.00
45763;BME280;37512;52.408;13.356;2023-02-13T05:50:04;103242.47;;;6.72;100.00
45763;BME280;37512;52.408;13.356;2023-02-13T05:54:05;103241.91;;;6.44;100.00
45763;BME280;37512;52.408;13.356;2023-02-13T05:58:07;103245.25;;;6.67;100.00
45763;BME280;37512;52.408;13.356;2023-02-13T06:02:09;103250.19;;;6.65;100.00
45763;BME280;37512;52.408;13.356;2023-02-13T06:06:11;103260.41;;;6.69;100.00
45763;BME280;37512;52.408;13.356;2023-02-13T06:10:12;103260.91;;;6.10;100.00
45763;BME280;37512;52.408;13.356;2023-02-13T06:14:14;103267.88;;;6.43;100.00
45763;BME280;37512;52.408;13.356;2023-02-13T06:18:15;103262.09;;;6.50;100.00
45763;BME280;37512;52.408;13.356;2023-02-13T06:22:16;103265.91;;;6.28;100.00
45763;BME280;37512;52.408;13.356;2023-02-13T06:26:18;103261.50;;;6.33;100.00
45763;BME280;37512;52.408;13.356;2023-02-13T06:30:19;103270.59;;;6.38;100.00
45763;BME280;37512;52.408;13.356;2023-02-13T06:34:20;103278.00;;;6.12;100.00
45763;BME280;37512;52.408;13.356;2023-02-13T06:38:22;103272.19;;;6.03;100.00
45763;BME280;37512;52.408;13.356;2023-02-13T06:42:24;103277.88;;;5.81;100.00
45763;BME280;37512;52.408;13.356;2023-02-13T06:46:25;103283.38;;;5.81;100.00
45763;BME280;37512;52.408;13.356;2023-02-13T06:50:27;103282.53;;;5.71;100.00
45763;BME280;37512;52.408;13.356;2023-02-13T06:54:28;103293.03;;;5.79;100.00
45763;BME280;37512;52.408;13.356;2023-02-13T06:58:47;103300.69;;;5.66;100.00
45763;BME280;37512;52.408;13.356;2023-02-13T07:02:48;103302.41;;;5.83;100.00
45763;BME280;37512;52.408;13.356;2023-02-13T07:06:49;103299.75;;;5.98;100.00
45763;BME280;37512;52.408;13.356;2023-02-13T07:10:51;103310.56;;;5.57;100.00
45763;BME280;37512;52.408;13.356;2023-02-13T07:14:52;103315.88;;;5.74;100.00
45763;BME280;37512;52.408;13.356;2023-02-13T07:18:54;103313.34;;;5.62;100.00
45763;BME280;37512;52.408;13.356;2023-02-13T07:23:02;103318.06;;;5.67;100.00
45763;BME280;37512;52.408;13.356;2023-02-13T07:27:04;103310.66;;;5.73;100.00
45763;BME280;37512;52.408;13.356;2023-02-13T07:31:05;103317.22;;;5.61;100.00
45763;BME280;37512;52.408;13.356;2023-02-13T07:35:07;103324.91;;;5.54;100.00
45763;BME280;37512;52.408;13.356;2023-02-13T07:39:09;103323.31;;;5.69;100.00
45763;BME280;37512;52.408;13.356;2023-02-13T07:43:10;103317.06;;;5.89;100.00
45763;BME280;37512;52.408;13.356;2023-02-13T07:47:12;103316.56;;;6.02;100.00
45763;BME280;37512;52.408;13.356;2023-02-13T07:51:14;103318.56;;;6.27;100.00
45763;BME280;37512;52.408;13.356;2023-02-13T07:55:16;103328.00;;;5.73;100.00
45763;BME280;37512;52.408;13.356;2023-02-13T07:59:17;103329.03;;;6.10;100.00
45763;BME280;37512;52.408;13.356;2023-02-13T08:03:19;103328.22;;;6.19;100.00
45763;BME280;37512;52.408;13.356;2023-02-13T08:07:20;103331.72;;;5.94;100.00
45763;BME280;37512;52.408;13.356;2023-02-13T08:11:30;103327.47;;;5.76;100.00
45763;BME280;37512;52.408;13.356;2023-02-13T08:15:51;103342.91;;;5.77;100.00
45763;BME280;37512;52.408;13.356;2023-02-13T08:19:52;103333.22;;;6.33;100.00
45763;BME280;37512;52.408;13.356;2023-02-13T08:23:53;103336.78;;;6.28;100.00
45763;BME280;37512;52.408;13.356;2023-02-13T08:27:55;103331.31;;;6.48;100.00
45763;BME280;37512;52.408;13.356;2023-02-13T08:31:56;103317.53;;;6.48;100.00
45763;BME280;37512;52.408;13.356;2023-02-13T08:35:58;103330.16;;;6.29;100.00
45763;BME280;37512;52.408;13.356;2023-02-13T08:39:59;103334.34;;;6.37;100.00
45763;BME280;37512;52.408;13.356;2023-02-13T08:44:01;103329.31;;;6.18;100.00
45763;BME280;37512;52.408;13.356;2023-02-13T08:48:02;103335.16;;;6.42;100.00
45763;BME280;37512;52.408;13.356;2023-02-13T08:52:04;103332.66;;;6.36;100.00
45763;BME280;37512;52.408;13.356;2023-02-13T08:56:05;103325.53;;;6.50;100.00
45763;BME280;37512;52.408;13.356;2023-02-13T09:00:07;103329.03;;;6.20;100.00
45763;BME280;37512;52.408;13.356;2023-02-13T09:04:09;103326.38;;;6.61;100.00
45763;BME280;37512;52.408;13.356;2023-02-13T09:08:10;103324.44;;;6.66;100.00
45763;BME280;37512;52.408;13.356;2023-02-13T09:12:13;103322.50;;;6.72;100.00
45763;BME280;37512;52.408;13.356;2023-02-13T09:16:15;103320.03;;;6.70;100.00
45763;BME280;37512;52.408;13.356;2023-02-13T09:20:16;103327.91;;;6.16;100.00
45763;BME280;37512;52.408;13.356;2023-02-13T09:24:18;103331.09;;;6.76;100.00
45763;BME280;37512;52.408;13.356;2023-02-13T09:28:19;103337.97;;;6.88;100.00
45763;BME280;37512;52.408;13.356;2023-02-13T09:32:21;103336.06;;;6.94;100.00
45763;BME280;37512;52.408;13.356;2023-02-13T09:36:22;103334.38;;;6.88;100.00
45763;BME280;37512;52.408;13.356;2023-02-13T09:40:26;103339.06;;;6.98;100.00
45763;BME280;37512;52.408;13.356;2023-02-13T09:48:39;103333.84;;;6.96;100.00
45763;BME280;37512;52.408;13.356;2023-02-13T09:52:42;103342.94;;;6.97;100.00
45763;BME280;37512;52.408;13.356;2023-02-13T09:56:49;103323.88;;;7.16;100.00
45763;BME280;37512;52.408;13.356;2023-02-13T10:00:55;103336.88;;;7.00;100.00
45763;BME280;37512;52.408;13.356;2023-02-13T10:05:09;103339.63;;;6.95;100.00
45763;BME280;37512;52.408;13.356;2023-02-13T10:13:46;103324.72;;;6.85;100.00
45763;BME280;37512;52.408;13.356;2023-02-13T10:17:56;103328.56;;;7.30;100.00
45763;BME280;37512;52.408;13.356;2023-02-13T10:22:01;103334.09;;;6.69;100.00
45763;BME280;37512;52.408;13.356;2023-02-13T10:26:06;103332.19;;;6.80;100.00
45763;BME280;37512;52.408;13.356;2023-02-13T10:30:19;103332.47;;;7.14;100.00
45763;BME280;37512;52.408;13.356;2023-02-13T10:34:24;103333.78;;;7.42;100.00
45763;BME280;37512;52.408;13.356;2023-02-13T10:38:27;103329.16;;;7.12;100.00
45763;BME280;37512;52.408;13.356;2023-02-13T11:03:26;103301.38;;;7.63;100.00
45763;BME280;37512;52.408;13.356;2023-02-13T11:07:28;103299.28;;;7.35;100.00
45763;BME280;37512;52.408;13.356;2023-02-13T11:11:34;103298.72;;;7.32;100.00
45763;BME280;37512;52.408;13.356;2023-02-13T11:15:36;103294.75;;;7.59;100.00
45763;BME280;37512;52.408;13.356;2023-02-13T11:19:38;103304.22;;;7.38;100.00
45763;BME280;37512;52.408;13.356;2023-02-13T11:23:44;103302.34;;;7.12;100.00
45763;BME280;37512;52.408;13.356;2023-02-13T11:27:46;103294.75;;;7.59;100.00
45763;BME280;37512;52.408;13.356;2023-02-13T11:31:59;103289.09;;;7.15;100.00
45763;BME280;37512;52.408;13.356;2023-02-13T11:36:08;103286.28;;;7.35;100.00
45763;BME280;37512;52.408;13.356;2023-02-13T11:40:27;103286.56;;;7.18;100.00
45763;BME280;37512;52.408;13.356;2023-02-13T11:44:30;103280.50;;;7.26;100.00
45763;BME280;37512;52.408;13.356;2023-02-13T11:48:32;103271.56;;;7.50;100.00
45763;BME280;37512;52.408;13.356;2023-02-13T11:52:34;103271.03;;;7.48;100.00
45763;BME280;37512;52.408;13.356;2023-02-13T11:56:47;103271.31;;;7.46;100.00
45763;BME280;37512;52.408;13.356;2023-02-13T12:05:16;103270.09;;;7.73;100.00
45763;BME280;37512;52.408;13.356;2023-02-13T12:09:18;103263.88;;;7.42;100.00
45763;BME280;37512;52.408;13.356;2023-02-13T12:13:20;103258.91;;;7.44;100.00
45763;BME280;37512;52.408;13.356;2023-02-13T12:17:27;103262.72;;;7.58;100.00
45763;BME280;37512;52.408;13.356;2023-02-13T12:22:21;103258.75;;;7.74;100.00
45763;BME280;37512;52.408;13.356;2023-02-13T12:43:11;103257.09;;;8.23;100.00
45763;BME280;37512;52.408;13.356;2023-02-13T12:47:21;103257.97;;;7.64;100.00
45763;BME280;37512;52.408;13.356;2023-02-13T12:51:30;103253.78;;;7.77;100.00
45763;BME280;37512;52.408;13.356;2023-02-13T13:20:56;103229.72;;;8.22;100.00
45763;BME280;37512;52.408;13.356;2023-02-13T13:25:03;103238.75;;;7.93;100.00
45763;BME280;37512;52.408;13.356;2023-02-13T13:29:11;103239.84;;;7.97;100.00
45763;BME280;37512;52.408;13.356;2023-02-13T13:33:17;103251.50;;;7.89;100.00
45763;BME280;37512;52.408;13.356;2023-02-13T13:37:27;103250.00;;;8.07;100.00
45763;BME280;37512;52.408;13.356;2023-02-13T13:49:49;103249.84;;;7.88;100.00
45763;BME280;37512;52.408;13.356;2023-02-13T13:58:01;103250.78;;;7.68;100.00
45763;BME280;37512;52.408;13.356;2023-02-13T14:02:25;103249.25;;;7.41;100.00
45763;BME280;37512;52.408;13.356;2023-02-13T14:06:27;103246.38;;;7.62;100.00
45763;BME280;37512;52.408;13.356;2023-02-13T14:14:52;103225.19;;;7.37;100.00
45763;BME280;37512;52.408;13.356;2023-02-13T14:18:54;103224.59;;;7.50;100.00
45763;BME280;37512;52.408;13.356;2023-02-13T14:22:55;103221.84;;;7.55;100.00
45763;BME280;37512;52.408;13.356;2023-02-13T14:27:14;103224.81;;;7.69;100.00
45763;BME280;37512;52.408;13.356;2023-02-13T14:35:29;103202.25;;;7.96;100.00
45763;BME280;37512;52.408;13.356;2023-02-13T14:39:34;103202.53;;;7.40;100.00
45763;BME280;37512;52.408;13.356;2023-02-13T14:43:37;103212.22;;;7.42;100.00
45763;BME280;37512;52.408;13.356;2023-02-13T14:47:42;103205.59;;;7.38;100.00
45763;BME280;37512;52.408;13.356;2023-02-13T14:51:51;103197.03;;;7.40;100.00
45763;BME280;37512;52.408;13.356;2023-02-13T15:00:33;103197.97;;;7.69;100.00
45763;BME280;37512;52.408;13.356;2023-02-13T15:04:39;103204.28;;;7.15;100.00
45763;BME280;37512;52.408;13.356;2023-02-13T15:08:44;103188.97;;;7.43;100.00
45763;BME280;37512;52.408;13.356;2023-02-13T15:12:47;103187.63;;;7.36;100.00
45763;BME280;37512;52.408;13.356;2023-02-13T15:17:18;103188.66;;;7.55;100.00
45763;BME280;37512;52.408;13.356;2023-02-13T15:21:18;103192.75;;;7.63;100.00
45763;BME280;37512;52.408;13.356;2023-02-13T15:25:22;103184.88;;;7.36;100.00
45763;BME280;37512;52.408;13.356;2023-02-13T15:29:27;103179.09;;;7.37;100.00
45763;BME280;37512;52.408;13.356;2023-02-13T15:33:48;103169.94;;;7.37;100.00
45763;BME280;37512;52.408;13.356;2023-02-13T15:37:50;103172.03;;;7.00;100.00
45763;BME280;37512;52.408;13.356;2023-02-13T15:41:56;103163.91;;;7.35;100.00
45763;BME280;37512;52.408;13.356;2023-02-13T15:46:05;103152.84;;;7.29;100.00
45763;BME280;37512;52.408;13.356;2023-02-13T15:50:51;103152.84;;;7.29;100.00
45763;BME280;37512;52.408;13.356;2023-02-13T15:54:33;103152.34;;;7.22;100.00
45763;BME280;37512;52.408;13.356;2023-02-13T15:58:35;103159.59;;;6.98;100.00
45763;BME280;37512;52.408;13.356;2023-02-13T16:02:43;103155.06;;;7.27;100.00
45763;BME280;37512;52.408;13.356;2023-02-13T16:06:46;103144.69;;;6.99;100.00
45763;BME280;37512;52.408;13.356;2023-02-13T16:10:49;103167.59;;;6.99;100.00
45763;BME280;37512;52.408;13.356;2023-02-13T16:14:54;103172.78;;;7.21;100.00
45763;BME280;37512;52.408;13.356;2023-02-13T16:18:56;103163.44;;;7.12;100.00
45763;BME280;37512;52.408;13.356;2023-02-13T16:23:06;103169.31;;;6.75;100.00
45763;BME280;37512;52.408;13.356;2023-02-13T16:27:12;103162.03;;;7.15;100.00
45763;BME280;37512;52.408;13.356;2023-02-13T16:31:14;103181.84;;;7.37;100.00
45763;BME280;37512;52.408;13.356;2023-02-13T16:35:27;103187.09;;;7.33;100.00
45763;BME280;37512;52.408;13.356;2023-02-13T16:39:30;103181.84;;;7.37;100.00
45763;BME280;37512;52.408;13.356;2023-02-13T16:47:39;103178.97;;;6.87;100.00
45763;BME280;37512;52.408;13.356;2023-02-13T16:55:42;103178.94;;;7.03;100.00
45763;BME280;37512;52.408;13.356;2023-02-13T17:03:48;103182.34;;;6.48;100.00
45763;BME280;37512;52.408;13.356;2023-02-13T17:07:50;103190.31;;;6.70;100.00
45763;BME280;37512;52.408;13.356;2023-02-13T17:11:53;103186.69;;;6.85;100.00
45763;BME280;37512;52.408;13.356;2023-02-13T17:15:54;103185.00;;;7.00;100.00
45763;BME280;37512;52.408;13.356;2023-02-13T17:19:56;103194.66;;;7.07;100.00
45763;BME280;37512;52.408;13.356;2023-02-13T17:23:57;103199.34;;;7.02;100.00
45763;BME280;37512;52.408;13.356;2023-02-13T17:27:59;103200.47;;;7.01;100.00
45763;BME280;37512;52.408;13.356;2023-02-13T17:32:01;103194.41;;;6.94;100.00
45763;BME280;37512;52.408;13.356;2023-02-13T17:36:03;103190.00;;;6.87;100.00
45763;BME280;37512;52.408;13.356;2023-02-13T17:40:05;103197.09;;;7.19;100.00
45763;BME280;37512;52.408;13.356;2023-02-13T17:44:08;103189.38;;;7.11;100.00
45763;BME280;37512;52.408;13.356;2023-02-13T17:48:12;103195.84;;;6.70;100.00
45763;BME280;37512;52.408;13.356;2023-02-13T17:52:14;103200.44;;;7.06;100.00
45763;BME280;37512;52.408;13.356;2023-02-13T17:56:17;103201.88;;;6.73;100.00
45763;BME280;37512;52.408;13.356;2023-02-13T18:00:19;103203.78;;;6.98;100.00
45763;BME280;37512;52.408;13.356;2023-02-13T18:04:20;103202.19;;;6.71;100.00
45763;BME280;37512;52.408;13.356;2023-02-13T18:08:22;103204.06;;;6.86;100.00
45763;BME280;37512;52.408;13.356;2023-02-13T18:12:23;103200.75;;;6.94;100.00
45763;BME280;37512;52.408;13.356;2023-02-13T18:16:25;103198.28;;;6.77;100.00
45763;BME280;37512;52.408;13.356;2023-02-13T18:20:26;103196.34;;;6.98;100.00
45763;BME280;37512;52.408;13.356;2023-02-13T18:24:31;103203.53;;;6.79;100.00
45763;BME280;37512;52.408;13.356;2023-02-13T18:28:33;103200.25;;;6.66;100.00
45763;BME280;37512;52.408;13.356;2023-02-13T18:32:34;103206.06;;;6.60;100.00
45763;BME280;37512;52.408;13.356;2023-02-13T18:36:36;103204.06;;;6.91;100.00
45763;BME280;37512;52.408;13.356;2023-02-13T18:40:37;103199.69;;;6.85;100.00
45763;BME280;37512;52.408;13.356;2023-02-13T18:44:39;103208.22;;;6.83;100.00
45763;BME280;37512;52.408;13.356;2023-02-13T18:48:41;103201.84;;;6.93;100.00
45763;BME280;37512;52.408;13.356;2023-02-13T18:52:42;103198.03;;;6.89;100.00
45763;BME280;37512;52.408;13.356;2023-02-13T18:56:44;103196.63;;;6.91;100.00
45763;BME280;37512;52.408;13.356;2023-02-13T19:00:45;103188.13;;;6.52;100.00
45763;BME280;37512;52.408;13.356;2023-02-13T19:04:47;103196.38;;;6.78;100.00
45763;BME280;37512;52.408;13.356;2023-02-13T19:08:48;103196.06;;;7.05;100.00
45763;BME280;37512;52.408;13.356;2023-02-13T19:12:50;103190.19;;;7.22;100.00
45763;BME280;37512;52.408;13.356;2023-02-13T19:16:51;103189.97;;;6.98;100.00
45763;BME280;37512;52.408;13.356;2023-02-13T19:20:57;103194.16;;;6.85;100.00
45763;BME280;37512;52.408;13.356;2023-02-13T19:24:59;103186.69;;;6.96;100.00
45763;BME280;37512;52.408;13.356;2023-02-13T19:29:04;103194.69;;;6.82;100.00
45763;BME280;37512;52.408;13.356;2023-02-13T19:33:06;103184.19;;;6.94;100.00
45763;BME280;37512;52.408;13.356;2023-02-13T19:37:10;103200.19;;;6.97;100.00
45763;BME280;37512;52.408;13.356;2023-02-13T19:41:15;103200.50;;;6.96;100.00
45763;BME280;37512;52.408;13.356;2023-02-13T19:45:17;103209.88;;;6.95;100.00
45763;BME280;37512;52.408;13.356;2023-02-13T19:49:19;103217.03;;;7.01;100.00
45763;BME280;37512;52.408;13.356;2023-02-13T19:53:22;103215.66;;;6.93;100.00
45763;BME280;37512;52.408;13.356;2023-02-13T19:57:26;103217.56;;;6.98;100.00
45763;BME280;37512;52.408;13.356;2023-02-13T20:01:28;103206.81;;;6.91;100.00
45763;BME280;37512;52.408;13.356;2023-02-13T20:05:30;103212.09;;;6.87;100.00
45763;BME280;37512;52.408;13.356;2023-02-13T20:09:32;103215.69;;;6.88;100.00
45763;BME280;37512;52.408;13.356;2023-02-13T20:13:35;103219.28;;;6.78;100.00
45763;BME280;37512;52.408;13.356;2023-02-13T20:17:36;103213.47;;;6.75;100.00
45763;BME280;37512;52.408;13.356;2023-02-13T20:21:39;103215.72;;;6.78;100.00
45763;BME280;37512;52.408;13.356;2023-02-13T20:25:44;103225.06;;;6.61;100.00
45763;BME280;37512;52.408;13.356;2023-02-13T20:29:45;103228.13;;;6.80;100.00
45763;BME280;37512;52.408;13.356;2023-02-13T20:33:47;103231.13;;;6.84;100.00
45763;BME280;37512;52.408;13.356;2023-02-13T20:37:49;103241.63;;;6.92;100.00
45763;BME280;37512;52.408;13.356;2023-02-13T20:41:50;103233.91;;;6.84;100.00
45763;BME280;37512;52.408;13.356;2023-02-13T20:45:54;103235.22;;;7.07;100.00
45763;BME280;37512;52.408;13.356;2023-02-13T20:49:56;103242.19;;;6.84;100.00
45763;BME280;37512;52.408;13.356;2023-02-13T20:53:57;103245.22;;;6.77;100.00
45763;BME280;37512;52.408;13.356;2023-02-13T20:58:00;103246.31;;;6.81;100.00
45763;BME280;37512;52.408;13.356;2023-02-13T21:02:01;103248.28;;;6.60;100.00
45763;BME280;37512;52.408;13.356;2023-02-13T21:06:03;103252.97;;;6.75;100.00
45763;BME280;37512;52.408;13.356;2023-02-13T21:10:05;103256.28;;;6.82;100.00
45763;BME280;37512;52.408;13.356;2023-02-13T21:14:06;103249.09;;;6.91;100.00
45763;BME280;37512;52.408;13.356;2023-02-13T21:18:08;103261.78;;;6.87;100.00
45763;BME280;37512;52.408;13.356;2023-02-13T21:22:09;103266.75;;;6.65;100.00
45763;BME280;37512;52.408;13.356;2023-02-13T21:26:13;103270.63;;;6.69;100.00
45763;BME280;37512;52.408;13.356;2023-02-13T21:30:15;103268.97;;;6.58;100.00
45763;BME280;37512;52.408;13.356;2023-02-13T21:34:16;103258.75;;;6.63;100.00
45763;BME280;37512;52.408;13.356;2023-02-13T21:38:18;103268.41;;;6.56;100.00
45763;BME280;37512;52.408;13.356;2023-02-13T21:42:19;103256.28;;;6.62;100.00
45763;BME280;37512;52.408;13.356;2023-02-13T21:50:22;103260.13;;;6.56;100.00
45763;BME280;37512;52.408;13.356;2023-02-13T21:54:24;103254.06;;;6.48;100.00
45763;BME280;37512;52.408;13.356;2023-02-13T21:58:25;103263.19;;;6.59;100.00
45763;BME280;37512;52.408;13.356;2023-02-13T22:02:27;103265.94;;;6.64;100.00
45763;BME280;37512;52.408;13.356;2023-02-13T22:06:30;103256.25;;;6.72;100.00
45763;BME280;37512;52.408;13.356;2023-02-13T22:10:32;103262.63;;;6.83;100.00
45763;BME280;37512;52.408;13.356;2023-02-13T22:14:34;103265.06;;;7.10;100.00
45763;BME280;37512;52.408;13.356;2023-02-13T22:18:39;103257.38;;;6.76;100.00
45763;BME280;37512;52.408;13.356;2023-02-13T22:22:41;103277.50;;;6.77;100.00
45763;BME280;37512;52.408;13.356;2023-02-13T22:26:42;103280.00;;;6.78;100.00
45763;BME280;37512;52.408;13.356;2023-02-13T22:30:47;103274.22;;;6.80;100.00
45763;BME280;37512;52.408;13.356;2023-02-13T22:34:49;103281.13;;;6.82;100.00
45763;BME280;37512;52.408;13.356;2023-02-13T22:38:50;103284.41;;;6.54;100.00
45763;BME280;37512;52.408;13.356;2023-02-13T22:42:51;103283.88;;;6.72;100.00
45763;BME280;37512;52.408;13.356;2023-02-13T22:46:53;103287.47;;;6.83;100.00
45763;BME280;37512;52.408;13.356;2023-02-13T22:50:54;103282.50;;;6.69;100.00
45763;BME280;37512;52.408;13.356;2023-02-13T22:54:55;103286.09;;;6.55;100.00
45763;BME280;37512;52.408;13.356;2023-02-13T22:58:57;103279.16;;;6.42;100.00
45763;BME280;37512;52.408;13.356;2023-02-13T23:02:59;103283.56;;;6.43;100.00
45763;BME280;37512;52.408;13.356;2023-02-13T23:07:00;103270.63;;;6.48;100.00
45763;BME280;37512;52.408;13.356;2023-02-13T23:11:05;103280.00;;;6.37;100.00
45763;BME280;37512;52.408;13.356;2023-02-13T23:15:26;103279.72;;;6.49;100.00
45763;BME280;37512;52.408;13.356;2023-02-13T23:19:27;103272.56;;;6.58;100.00
45763;BME280;37512;52.408;13.356;2023-02-13T23:23:30;103274.47;;;6.47;100.00
45763;BME280;37512;52.408;13.356;2023-02-13T23:27:31;103279.69;;;6.23;100.00
45763;BME280;37512;52.408;13.356;2023-02-13T23:31:33;103281.63;;;6.38;100.00